Time;durP1;ratioP1;P1;durP2;ratioP2;P2;SDS_P1;SDS_P2;PMS_P1;PMS_P2;Temp;Humidity;BMP_temperature;BMP_pressure;BME280_temperature;BME280_humidity;BME280_pressure;Samples;Min_cycle;Max_cycle;Signal;HPM_P1;HPM_P2
2023/07/30 00:01:39;;;;;;;3.42;2.50;;;;;;;;;;5132022;28;20863;-79
2023/07/30 00:04:05;;;;;;;3.00;2.70;;;;;;;;;;5133054;28;20376;-79
2023/07/30 00:06:31;;;;;;;2.70;2.50;;;;;;;;;;5131427;28;20372;-79
2023/07/30 00:08:57;;;;;;;2.78;2.58;;;;;;;;;;5130392;28;20479;-79
2023/07/30 00:11:23;;;;;;;2.83;2.63;;;;;;;;;;5132077;28;20388;-79
2023/07/30 00:13:49;;;;;;;3.28;2.97;;;;;;;;;;5132159;28;20902;-79
2023/07/30 00:16:15;;;;;;;3.25;2.95;;;;;;;;;;5132223;28;20412;-80
2023/07/30 00:18:41;;;;;;;3.42;3.13;;;;;;;;;;5131833;28;20380;-80
2023/07/30 00:21:07;;;;;;;3.30;3.00;;;;;;;;;;5132039;28;20400;-79
2023/07/30 00:23:33;;;;;;;3.33;3.13;;;;;;;;;;5132822;28;20373;-79
2023/07/30 00:25:59;;;;;;;3.50;3.20;;;;;;;;;;5131841;28;20385;-79
2023/07/30 00:28:25;;;;;;;3.38;3.10;;;;;;;;;;5131621;28;20440;-79
2023/07/30 00:30:51;;;;;;;3.40;3.10;;;;;;;;;;5113391;28;20845;-80
2023/07/30 00:33:17;;;;;;;3.60;3.30;;;;;;;;;;5131295;28;20410;-79
2023/07/30 00:35:43;;;;;;;3.37;3.07;;;;;;;;;;5130918;28;20496;-80
2023/07/30 00:38:09;;;;;;;3.83;3.03;;;;;;;;;;5131323;28;20513;-80
2023/07/30 00:40:40;;;;;;;3.20;3.00;;;;;;;;;;5131700;28;20387;-79
2023/07/30 00:43:06;;;;;;;3.35;3.05;;;;;;;;;;5131121;28;20380;-79
2023/07/30 00:45:32;;;;;;;3.08;2.85;;;;;;;;;;5111488;28;20389;-79
2023/07/30 00:47:58;;;;;;;3.30;3.00;;;;;;;;;;5128500;28;20460;-79
2023/07/30 00:50:24;;;;;;;3.28;2.97;;;;;;;;;;5130140;28;20412;-79
2023/07/30 00:52:50;;;;;;;2.78;2.58;;;;;;;;;;5124288;28;20384;-79
2023/07/30 00:55:16;;;;;;;3.20;2.90;;;;;;;;;;5128392;28;20392;-79
2023/07/30 00:57:43;;;;;;;3.20;3.00;;;;;;;;;;5127731;28;20404;-79
2023/07/30 01:00:09;;;;;;;3.25;2.95;;;;;;;;;;5131226;28;20396;-79
2023/07/30 01:02:38;;;;;;;3.60;3.30;;;;;;;;;;5117662;27;20384;-79
2023/07/30 01:05:04;;;;;;;3.40;3.10;;;;;;;;;;5117884;28;20381;-79
2023/07/30 01:07:31;;;;;;;4.43;3.25;;;;;;;;;;5112441;28;20415;-80
2023/07/30 01:09:57;;;;;;;3.50;3.20;;;;;;;;;;5130985;28;20387;-79
2023/07/30 01:12:23;;;;;;;3.73;3.43;;;;;;;;;;5130978;28;20478;-79
2023/07/30 01:14:50;;;;;;;3.70;3.35;;;;;;;;;;5130812;28;20414;-79
2023/07/30 01:17:16;;;;;;;3.70;3.40;;;;;;;;;;5128146;28;20829;-79
2023/07/30 01:19:42;;;;;;;4.40;4.00;;;;;;;;;;5128471;28;20407;-79
2023/07/30 01:22:08;;;;;;;3.88;3.58;;;;;;;;;;5130912;28;20836;-79
2023/07/30 01:24:34;;;;;;;3.90;3.50;;;;;;;;;;5130982;28;20392;-79
2023/07/30 01:27:02;;;;;;;3.65;3.38;;;;;;;;;;5131620;28;20391;-79
2023/07/30 01:29:33;;;;;;;3.60;3.30;;;;;;;;;;5131145;28;20844;-80
2023/07/30 01:32:02;;;;;;;4.10;3.80;;;;;;;;;;5130905;28;20801;-79
2023/07/30 01:34:28;;;;;;;4.00;3.70;;;;;;;;;;5112711;28;20435;-79
2023/07/30 01:36:55;;;;;;;3.88;3.50;;;;;;;;;;5129618;28;20791;-80
2023/07/30 01:39:21;;;;;;;5.05;4.10;;;;;;;;;;5126163;28;20419;-79
2023/07/30 01:41:47;;;;;;;4.00;3.60;;;;;;;;;;5126346;28;20388;-79
2023/07/30 01:44:13;;;;;;;5.20;3.60;;;;;;;;;;5112064;28;20389;-79
2023/07/30 01:46:39;;;;;;;3.90;3.53;;;;;;;;;;5130024;28;20393;-79
2023/07/30 01:49:05;;;;;;;3.40;3.10;;;;;;;;;;5130937;28;20470;-80
2023/07/30 01:51:31;;;;;;;3.63;3.33;;;;;;;;;;5130469;28;20384;-80
2023/07/30 01:53:57;;;;;;;3.97;3.53;;;;;;;;;;5112550;28;20389;-79
2023/07/30 01:56:23;;;;;;;4.03;3.72;;;;;;;;;;5128850;28;20845;-79
2023/07/30 01:58:48;;;;;;;3.70;3.40;;;;;;;;;;5126517;28;20475;-79
2023/07/30 02:01:15;;;;;;;3.53;3.23;;;;;;;;;;5127378;28;20380;-79
2023/07/30 02:03:41;;;;;;;3.03;2.78;;;;;;;;;;5115322;28;20465;-80
2023/07/30 02:06:07;;;;;;;3.90;3.60;;;;;;;;;;5110311;28;20382;-80
2023/07/30 02:08:33;;;;;;;3.70;3.40;;;;;;;;;;5120012;28;20376;-80
2023/07/30 02:10:59;;;;;;;3.90;3.50;;;;;;;;;;5121518;28;20459;-80
2023/07/30 02:13:25;;;;;;;3.63;3.33;;;;;;;;;;5127668;28;20388;-80
2023/07/30 02:15:51;;;;;;;3.50;3.20;;;;;;;;;;5125694;28;20408;-80
2023/07/30 02:18:17;;;;;;;3.80;3.33;;;;;;;;;;5128308;28;20406;-79
2023/07/30 02:22:12;;;;;;;3.55;3.25;;;;;;;;;;5150481;27;20835;-79
2023/07/30 02:24:38;;;;;;;3.50;3.20;;;;;;;;;;5118079;28;20397;-80
2023/07/30 02:27:04;;;;;;;3.72;3.05;;;;;;;;;;5123593;28;20415;-81
2023/07/30 02:29:31;;;;;;;3.45;3.15;;;;;;;;;;5119753;28;20384;-81
2023/07/30 02:31:59;;;;;;;3.50;3.20;;;;;;;;;;5120888;28;20402;-81
2023/07/30 02:34:25;;;;;;;3.90;3.42;;;;;;;;;;5120646;28;20382;-80
2023/07/30 02:36:51;;;;;;;5.20;3.70;;;;;;;;;;5120674;28;20383;-80
2023/07/30 02:39:18;;;;;;;3.73;3.40;;;;;;;;;;5118194;28;20456;-80
2023/07/30 02:41:44;;;;;;;4.07;3.75;;;;;;;;;;5121127;28;20424;-80
2023/07/30 02:44:09;;;;;;;5.03;3.70;;;;;;;;;;5121561;28;20449;-81
2023/07/30 02:46:35;;;;;;;3.70;3.40;;;;;;;;;;5101968;28;20385;-80
2023/07/30 02:49:01;;;;;;;4.65;3.35;;;;;;;;;;5121263;28;20387;-79
2023/07/30 02:51:27;;;;;;;3.92;3.63;;;;;;;;;;5144293;28;20390;-80
2023/07/30 02:53:56;;;;;;;3.50;3.30;;;;;;;;;;5139418;28;20382;-78
2023/07/30 02:56:22;;;;;;;3.15;2.83;;;;;;;;;;5139877;28;20409;-79
2023/07/30 02:58:48;;;;;;;3.80;2.83;;;;;;;;;;5137974;28;20849;-78
2023/07/30 03:01:14;;;;;;;4.50;3.13;;;;;;;;;;5114764;28;20434;-78
2023/07/30 03:03:40;;;;;;;4.13;3.72;;;;;;;;;;5133270;28;20455;-80
2023/07/30 03:06:06;;;;;;;3.83;3.50;;;;;;;;;;5133478;28;20387;-79
2023/07/30 03:08:32;;;;;;;5.10;3.70;;;;;;;;;;5116250;28;20384;-78
2023/07/30 03:10:59;;;;;;;4.57;4.18;;;;;;;;;;5134101;28;20395;-79
2023/07/30 03:13:25;;;;;;;4.28;3.97;;;;;;;;;;5116120;28;20377;-79
2023/07/30 03:15:51;;;;;;;4.77;4.30;;;;;;;;;;5113641;28;20474;-79
2023/07/30 03:18:17;;;;;;;4.78;4.43;;;;;;;;;;5113586;28;20382;-78
2023/07/30 03:20:43;;;;;;;4.75;4.25;;;;;;;;;;5113340;28;20735;-79
2023/07/30 03:23:09;;;;;;;5.07;4.57;;;;;;;;;;5112897;28;20385;-80
2023/07/30 03:25:35;;;;;;;4.75;4.32;;;;;;;;;;5112751;28;20369;-79
2023/07/30 03:28:01;;;;;;;4.73;4.27;;;;;;;;;;5123791;28;20500;-79
2023/07/30 03:30:27;;;;;;;5.00;4.50;;;;;;;;;;5133673;28;20372;-80
2023/07/30 03:32:53;;;;;;;5.03;4.55;;;;;;;;;;5123477;28;20462;-79
2023/07/30 03:35:19;;;;;;;6.68;4.85;;;;;;;;;;5119643;28;20372;-80
2023/07/30 03:37:45;;;;;;;4.93;4.53;;;;;;;;;;5119875;28;20395;-80
2023/07/30 03:40:11;;;;;;;5.72;5.20;;;;;;;;;;5119359;28;20419;-79
2023/07/30 03:42:37;;;;;;;5.93;5.35;;;;;;;;;;5100837;28;20437;-79
2023/07/30 03:45:03;;;;;;;5.82;5.25;;;;;;;;;;5119495;28;20388;-78
2023/07/30 03:47:29;;;;;;;5.20;4.75;;;;;;;;;;5118755;28;20712;-79
2023/07/30 03:49:55;;;;;;;5.50;5.10;;;;;;;;;;5119502;28;20387;-79
2023/07/30 03:52:21;;;;;;;5.78;5.30;;;;;;;;;;5118886;28;20399;-79
2023/07/30 03:54:47;;;;;;;6.55;5.00;;;;;;;;;;5118483;28;20518;-79
2023/07/30 03:57:13;;;;;;;5.75;5.25;;;;;;;;;;5118405;28;20388;-78
2023/07/30 03:59:39;;;;;;;5.88;5.43;;;;;;;;;;5118430;28;20433;-79
2023/07/30 04:02:05;;;;;;;5.67;5.20;;;;;;;;;;5118380;28;20480;-78
2023/07/30 04:04:30;;;;;;;6.05;5.47;;;;;;;;;;5118543;28;20453;-79
2023/07/30 04:06:56;;;;;;;5.93;5.45;;;;;;;;;;5118906;28;20384;-79
2023/07/30 04:09:23;;;;;;;5.28;4.88;;;;;;;;;;5119244;28;20463;-79
2023/07/30 04:11:49;;;;;;;5.32;4.93;;;;;;;;;;5119368;28;20376;-79
2023/07/30 04:14:14;;;;;;;5.20;4.80;;;;;;;;;;5119523;28;20459;-78
2023/07/30 04:16:42;;;;;;;5.15;4.60;;;;;;;;;;5119946;28;20900;-78
2023/07/30 04:19:08;;;;;;;5.40;5.00;;;;;;;;;;5119254;28;20387;-79
2023/07/30 04:21:34;;;;;;;6.05;5.55;;;;;;;;;;5118590;28;20404;-78
2023/07/30 04:24:01;;;;;;;5.90;5.40;;;;;;;;;;5118241;28;20880;-79
2023/07/30 04:26:27;;;;;;;6.18;5.65;;;;;;;;;;5117775;28;20383;-79
2023/07/30 04:28:52;;;;;;;5.97;5.38;;;;;;;;;;5115833;28;20372;-78
2023/07/30 04:31:19;;;;;;;6.18;5.68;;;;;;;;;;5118558;28;20379;-78
2023/07/30 04:33:45;;;;;;;5.73;5.30;;;;;;;;;;5118355;28;20417;-79
2023/07/30 04:36:11;;;;;;;6.22;5.53;;;;;;;;;;5099435;28;20414;-79
2023/07/30 04:38:37;;;;;;;5.80;5.40;;;;;;;;;;5117726;28;20404;-79
2023/07/30 04:41:02;;;;;;;5.72;5.22;;;;;;;;;;5117657;28;20424;-78
2023/07/30 04:43:29;;;;;;;5.75;5.25;;;;;;;;;;5117801;28;20372;-79
2023/07/30 04:45:55;;;;;;;5.70;5.30;;;;;;;;;;5117873;28;20868;-79
2023/07/30 04:48:21;;;;;;;5.45;5.05;;;;;;;;;;5118616;28;20380;-78
2023/07/30 04:50:47;;;;;;;5.82;5.32;;;;;;;;;;5118616;28;20437;-78
2023/07/30 04:53:13;;;;;;;5.83;5.43;;;;;;;;;;5118743;28;20415;-79
2023/07/30 04:55:39;;;;;;;5.72;5.22;;;;;;;;;;5117720;28;20430;-78
2023/07/30 04:58:05;;;;;;;5.90;5.43;;;;;;;;;;5099274;28;20401;-78
2023/07/30 05:00:31;;;;;;;5.73;5.23;;;;;;;;;;5118118;28;20433;-78
2023/07/30 05:02:57;;;;;;;5.35;4.88;;;;;;;;;;5117677;28;20810;-79
2023/07/30 05:05:23;;;;;;;5.15;4.75;;;;;;;;;;5118084;28;20463;-78
2023/07/30 05:07:49;;;;;;;5.45;5.05;;;;;;;;;;5117505;28;20453;-78
2023/07/30 05:10:16;;;;;;;5.57;5.07;;;;;;;;;;5114523;28;20460;-78
2023/07/30 05:12:42;;;;;;;5.30;4.90;;;;;;;;;;5116902;28;20387;-79
2023/07/30 05:15:08;;;;;;;4.97;4.60;;;;;;;;;;5117612;28;20376;-79
2023/07/30 05:17:34;;;;;;;4.72;4.38;;;;;;;;;;5117378;28;20392;-79
2023/07/30 05:20:00;;;;;;;4.47;4.18;;;;;;;;;;5117352;28;20806;-79
2023/07/30 05:22:26;;;;;;;4.47;4.17;;;;;;;;;;5117692;28;20384;-78
2023/07/30 05:24:52;;;;;;;4.63;4.25;;;;;;;;;;5117269;28;20374;-79
2023/07/30 05:27:18;;;;;;;4.40;4.07;;;;;;;;;;5117263;28;20837;-78
2023/07/30 05:29:44;;;;;;;4.50;4.20;;;;;;;;;;5117102;28;20476;-78
2023/07/30 05:32:10;;;;;;;4.60;4.30;;;;;;;;;;5117240;28;20373;-79
2023/07/30 05:34:36;;;;;;;4.82;4.32;;;;;;;;;;5117472;28;20384;-79
2023/07/30 05:37:02;;;;;;;4.80;4.43;;;;;;;;;;5116844;28;20380;-77
2023/07/30 05:39:28;;;;;;;4.28;3.90;;;;;;;;;;5117763;28;20919;-79
2023/07/30 05:41:54;;;;;;;4.30;4.00;;;;;;;;;;5117606;28;20463;-79
2023/07/30 05:44:20;;;;;;;3.80;3.55;;;;;;;;;;5117358;28;20709;-78
2023/07/30 05:46:46;;;;;;;4.25;3.95;;;;;;;;;;5098837;28;20385;-78
2023/07/30 05:49:12;;;;;;;3.95;3.55;;;;;;;;;;5116667;28;20399;-78
2023/07/30 05:51:38;;;;;;;4.03;3.72;;;;;;;;;;5117065;28;20455;-79
2023/07/30 05:54:05;;;;;;;4.30;4.00;;;;;;;;;;5118623;28;20473;-79
2023/07/30 05:56:31;;;;;;;4.60;3.90;;;;;;;;;;5118453;28;20386;-79
2023/07/30 05:58:57;;;;;;;3.75;3.45;;;;;;;;;;5119348;28;20424;-79
2023/07/30 06:01:23;;;;;;;4.63;4.00;;;;;;;;;;5118461;28;20829;-79
2023/07/30 06:03:49;;;;;;;4.10;3.78;;;;;;;;;;5118214;28;20384;-79
2023/07/30 06:06:15;;;;;;;4.70;4.30;;;;;;;;;;5118388;28;20420;-79
2023/07/30 06:08:41;;;;;;;4.32;4.00;;;;;;;;;;5118018;28;20383;-79
2023/07/30 06:11:07;;;;;;;6.50;4.00;;;;;;;;;;5117704;28;20380;-79
2023/07/30 06:13:33;;;;;;;3.95;3.65;;;;;;;;;;5117647;28;20385;-79
2023/07/30 06:15:59;;;;;;;3.55;3.33;;;;;;;;;;5117858;28;20724;-79
2023/07/30 06:18:25;;;;;;;3.90;3.70;;;;;;;;;;5117835;28;20412;-79
2023/07/30 06:20:51;;;;;;;3.30;3.00;;;;;;;;;;5117622;28;20412;-79
2023/07/30 06:23:17;;;;;;;3.40;3.15;;;;;;;;;;5117732;28;20383;-78
2023/07/30 06:25:43;;;;;;;3.38;3.15;;;;;;;;;;5117428;28;20717;-79
2023/07/30 06:28:09;;;;;;;3.53;3.22;;;;;;;;;;5099257;28;20407;-79
2023/07/30 06:30:36;;;;;;;3.58;3.28;;;;;;;;;;5117999;28;20388;-79
2023/07/30 06:33:02;;;;;;;2.97;2.78;;;;;;;;;;5112168;28;20721;-79
2023/07/30 06:35:28;;;;;;;3.00;2.80;;;;;;;;;;5117569;28;20380;-79
2023/07/30 06:37:54;;;;;;;3.13;2.92;;;;;;;;;;5117669;28;20407;-79
2023/07/30 06:40:20;;;;;;;3.03;2.80;;;;;;;;;;5117311;28;20400;-79
2023/07/30 06:42:46;;;;;;;2.50;2.30;;;;;;;;;;5117357;28;20444;-79
2023/07/30 06:45:12;;;;;;;2.40;2.20;;;;;;;;;;5117906;28;20448;-78
2023/07/30 06:47:38;;;;;;;2.53;1.70;;;;;;;;;;5116467;28;20898;-79
2023/07/30 06:50:08;;;;;;;1.80;1.70;;;;;;;;;;5116969;28;20377;-79
2023/07/30 06:52:34;;;;;;;1.65;1.55;;;;;;;;;;5117961;28;20377;-79
2023/07/30 06:55:00;;;;;;;1.73;1.60;;;;;;;;;;5117194;28;20372;-79
2023/07/30 06:57:26;;;;;;;1.83;1.60;;;;;;;;;;5116405;28;20373;-78
2023/07/30 06:59:52;;;;;;;2.13;1.70;;;;;;;;;;5116168;28;20384;-79
2023/07/30 07:02:18;;;;;;;1.55;1.40;;;;;;;;;;5115991;28;20404;-79
2023/07/30 07:04:44;;;;;;;1.93;1.73;;;;;;;;;;5117542;28;20880;-79
2023/07/30 07:07:10;;;;;;;1.70;1.60;;;;;;;;;;5116869;28;20388;-79
2023/07/30 07:09:36;;;;;;;2.85;1.58;;;;;;;;;;5120433;28;20376;-79
2023/07/30 07:12:05;;;;;;;1.73;1.63;;;;;;;;;;5120298;28;20395;-78
2023/07/30 07:14:30;;;;;;;2.50;1.58;;;;;;;;;;5120181;28;20502;-79
2023/07/30 07:16:56;;;;;;;1.50;1.17;;;;;;;;;;5120385;28;20454;-78
2023/07/30 07:19:23;;;;;;;2.65;1.20;;;;;;;;;;5116588;28;20368;-79
2023/07/30 07:21:49;;;;;;;1.40;1.30;;;;;;;;;;5120190;28;20431;-79
2023/07/30 07:24:15;;;;;;;1.65;1.50;;;;;;;;;;5119569;28;20391;-79
2023/07/30 07:26:41;;;;;;;2.10;1.30;;;;;;;;;;5119569;28;20455;-78
2023/07/30 07:29:07;;;;;;;1.30;1.20;;;;;;;;;;5119769;28;20379;-78
2023/07/30 07:31:33;;;;;;;1.75;1.45;;;;;;;;;;5118355;28;20384;-78
2023/07/30 07:33:59;;;;;;;1.42;1.33;;;;;;;;;;5118456;28;20398;-79
2023/07/30 07:36:25;;;;;;;1.60;1.50;;;;;;;;;;5118230;28;20514;-79
2023/07/30 07:38:51;;;;;;;1.65;1.45;;;;;;;;;;5118023;28;20771;-79
2023/07/30 07:41:17;;;;;;;1.95;1.60;;;;;;;;;;5119189;28;20412;-78
2023/07/30 07:43:47;;;;;;;1.60;1.50;;;;;;;;;;5120542;28;20393;-79
2023/07/30 07:46:13;;;;;;;1.60;1.50;;;;;;;;;;5119690;28;20375;-79
2023/07/30 07:48:43;;;;;;;1.50;1.30;;;;;;;;;;5118823;28;20408;-79
2023/07/30 07:51:10;;;;;;;1.40;1.30;;;;;;;;;;5119012;28;20388;-79
2023/07/30 07:53:36;;;;;;;1.50;1.10;;;;;;;;;;5118765;28;20377;-78
2023/07/30 07:56:02;;;;;;;1.30;1.20;;;;;;;;;;5118576;28;20431;-78
2023/07/30 07:58:28;;;;;;;1.40;1.30;;;;;;;;;;5119266;28;20404;-79
2023/07/30 08:00:55;;;;;;;2.20;1.30;;;;;;;;;;5119618;28;20909;-79
2023/07/30 08:03:21;;;;;;;1.20;1.10;;;;;;;;;;5119310;28;20383;-79
2023/07/30 08:05:47;;;;;;;1.65;1.30;;;;;;;;;;5118809;28;20372;-78
2023/07/30 08:08:13;;;;;;;1.27;1.17;;;;;;;;;;5118524;28;20380;-78
2023/07/30 08:10:42;;;;;;;1.00;0.90;;;;;;;;;;5118980;28;20383;-79
2023/07/30 08:13:08;;;;;;;1.10;1.00;;;;;;;;;;5119202;28;20385;-79
2023/07/30 08:15:34;;;;;;;1.13;1.02;;;;;;;;;;5119311;28;20377;-78
2023/07/30 08:18:00;;;;;;;1.10;0.98;;;;;;;;;;5119205;28;20381;-78
2023/07/30 08:20:26;;;;;;;1.10;1.00;;;;;;;;;;5118504;28;20500;-79
2023/07/30 08:22:52;;;;;;;1.00;1.00;;;;;;;;;;5118693;28;20368;-79
2023/07/30 08:25:18;;;;;;;0.90;0.90;;;;;;;;;;5118201;28;20430;-78
2023/07/30 08:27:44;;;;;;;1.10;0.95;;;;;;;;;;5117984;28;20373;-79
2023/07/30 08:30:10;;;;;;;0.90;0.90;;;;;;;;;;5118677;28;20928;-77
2023/07/30 08:32:36;;;;;;;0.90;0.90;;;;;;;;;;5118159;28;20376;-79
2023/07/30 08:35:02;;;;;;;0.93;0.90;;;;;;;;;;5118696;28;20381;-78
2023/07/30 08:37:28;;;;;;;1.17;1.00;;;;;;;;;;5118316;28;20433;-79
2023/07/30 08:39:54;;;;;;;0.80;0.80;;;;;;;;;;5115574;28;20368;-79
2023/07/30 08:42:20;;;;;;;1.13;1.02;;;;;;;;;;5118823;28;20427;-78
2023/07/30 08:44:46;;;;;;;2.42;1.10;;;;;;;;;;5118549;28;20380;-79
2023/07/30 08:47:13;;;;;;;0.80;0.80;;;;;;;;;;5118684;28;20403;-79
2023/07/30 08:49:39;;;;;;;0.98;0.93;;;;;;;;;;5118555;28;20364;-78
2023/07/30 08:52:08;;;;;;;1.02;0.85;;;;;;;;;;5118906;28;20451;-80
2023/07/30 08:54:34;;;;;;;0.90;0.73;;;;;;;;;;5118241;28;20372;-78
2023/07/30 08:57:02;;;;;;;0.77;0.70;;;;;;;;;;5119077;28;20841;-79
2023/07/30 08:59:29;;;;;;;1.40;1.03;;;;;;;;;;5118279;28;20448;-79
2023/07/30 09:01:56;;;;;;;1.00;0.90;;;;;;;;;;5117973;28;20411;-79
2023/07/30 09:04:22;;;;;;;1.70;0.90;;;;;;;;;;5118042;28;20735;-79
2023/07/30 09:06:50;;;;;;;2.15;1.15;;;;;;;;;;5118881;28;20413;-79
2023/07/30 09:09:16;;;;;;;1.25;0.90;;;;;;;;;;5118679;28;20372;-79
2023/07/30 09:11:42;;;;;;;1.10;1.00;;;;;;;;;;5118570;28;20450;-79
2023/07/30 09:14:09;;;;;;;1.40;0.90;;;;;;;;;;5118828;28;20396;-79
2023/07/30 09:16:35;;;;;;;1.60;0.98;;;;;;;;;;5118005;28;20380;-78
2023/07/30 09:19:01;;;;;;;1.10;1.00;;;;;;;;;;5117274;28;20437;-78
2023/07/30 09:21:34;;;;;;;1.00;1.00;;;;;;;;;;5118031;28;20411;-78
2023/07/30 09:24:05;;;;;;;1.90;1.00;;;;;;;;;;5114974;28;20911;-79
2023/07/30 09:26:40;;;;;;;0.98;0.88;;;;;;;;;;5118107;28;20372;-79
2023/07/30 09:29:08;;;;;;;1.13;0.90;;;;;;;;;;5117585;28;20380;-78
2023/07/30 09:31:43;;;;;;;1.42;1.23;;;;;;;;;;5118544;28;20751;-78
2023/07/30 09:34:09;;;;;;;2.38;2.17;;;;;;;;;;5119381;28;20837;-78
2023/07/30 09:36:35;;;;;;;1.30;1.20;;;;;;;;;;5119265;28;20383;-78
2023/07/30 09:39:01;;;;;;;1.80;1.10;;;;;;;;;;5120047;28;20687;-79
2023/07/30 09:41:27;;;;;;;1.20;1.10;;;;;;;;;;5119767;28;20453;-80
2023/07/30 09:43:58;;;;;;;1.70;1.60;;;;;;;;;;5120760;28;20380;-79
2023/07/30 09:46:30;;;;;;;3.42;2.15;;;;;;;;;;5119149;28;20423;-79
2023/07/30 09:48:56;;;;;;;1.25;1.15;;;;;;;;;;5117980;28;20872;-79
2023/07/30 09:51:22;;;;;;;1.70;1.10;;;;;;;;;;5118189;28;20381;-79
2023/07/30 09:53:49;;;;;;;1.67;1.07;;;;;;;;;;5117248;28;20380;-79
2023/07/30 09:56:15;;;;;;;0.98;0.98;;;;;;;;;;5117871;28;20383;-79
2023/07/30 09:58:42;;;;;;;1.63;1.20;;;;;;;;;;5118163;28;20389;-79
2023/07/30 10:01:08;;;;;;;0.95;0.95;;;;;;;;;;5117516;28;20408;-78
2023/07/30 10:03:35;;;;;;;1.23;1.13;;;;;;;;;;5117510;28;20388;-79
2023/07/30 10:06:07;;;;;;;1.20;1.10;;;;;;;;;;5117853;28;20412;-79
2023/07/30 10:08:36;;;;;;;1.20;1.10;;;;;;;;;;5118026;28;20925;-79
2023/07/30 10:11:04;;;;;;;0.93;0.90;;;;;;;;;;5117641;28;20387;-79
2023/07/30 10:13:30;;;;;;;1.20;1.10;;;;;;;;;;5117267;28;20404;-79
2023/07/30 10:15:58;;;;;;;1.58;1.17;;;;;;;;;;5117394;28;20380;-79
2023/07/30 10:18:26;;;;;;;1.00;1.00;;;;;;;;;;5117290;28;20404;-79
2023/07/30 10:20:57;;;;;;;1.70;1.10;;;;;;;;;;5116670;28;20404;-80
2023/07/30 10:23:27;;;;;;;1.23;1.13;;;;;;;;;;5117658;28;20441;-79
2023/07/30 10:25:55;;;;;;;1.10;1.00;;;;;;;;;;5117627;28;20412;-79
2023/07/30 10:28:30;;;;;;;1.30;1.20;;;;;;;;;;5117681;28;20436;-78
2023/07/30 10:30:57;;;;;;;1.65;1.17;;;;;;;;;;5117093;28;20376;-79
2023/07/30 10:33:23;;;;;;;1.88;1.02;;;;;;;;;;5098356;28;20389;-79
2023/07/30 10:35:55;;;;;;;1.60;1.20;;;;;;;;;;5116351;28;20737;-78
2023/07/30 10:38:30;;;;;;;1.30;1.20;;;;;;;;;;5117899;28;20376;-80
2023/07/30 10:41:09;;;;;;;1.25;1.15;;;;;;;;;;5117621;28;20494;-79
2023/07/30 10:43:46;;;;;;;1.17;1.08;;;;;;;;;;5097360;28;20387;-80
2023/07/30 10:46:13;;;;;;;1.50;1.10;;;;;;;;;;5121492;28;20376;-80
2023/07/30 10:48:40;;;;;;;1.33;1.15;;;;;;;;;;5103072;28;20434;-80
2023/07/30 10:51:08;;;;;;;1.83;1.30;;;;;;;;;;5120269;28;20384;-79
2023/07/30 10:53:36;;;;;;;1.50;1.02;;;;;;;;;;5120681;28;20380;-80
2023/07/30 10:56:03;;;;;;;1.20;1.10;;;;;;;;;;5120670;28;20376;-80
2023/07/30 10:58:30;;;;;;;1.10;1.00;;;;;;;;;;5120546;28;20387;-80
2023/07/30 11:00:56;;;;;;;2.90;1.33;;;;;;;;;;5119737;28;20885;-80
2023/07/30 11:03:26;;;;;;;1.15;1.05;;;;;;;;;;5101685;28;20379;-80
2023/07/30 11:05:52;;;;;;;2.28;1.17;;;;;;;;;;5120130;28;20710;-80
2023/07/30 11:08:18;;;;;;;1.25;1.15;;;;;;;;;;5120132;28;20430;-80
2023/07/30 11:10:46;;;;;;;1.40;1.10;;;;;;;;;;5120774;28;20395;-80
2023/07/30 11:13:13;;;;;;;1.65;1.20;;;;;;;;;;5101758;28;20408;-80
2023/07/30 11:15:43;;;;;;;3.95;1.10;;;;;;;;;;5120071;28;20417;-80
2023/07/30 11:18:09;;;;;;;1.20;1.10;;;;;;;;;;5119450;28;20379;-81
2023/07/30 11:20:36;;;;;;;1.20;1.10;;;;;;;;;;5119936;28;20416;-80
2023/07/30 11:23:02;;;;;;;1.15;1.13;;;;;;;;;;5120258;28;20411;-80
2023/07/30 11:25:28;;;;;;;1.40;1.30;;;;;;;;;;5120018;28;20877;-80
2023/07/30 11:27:54;;;;;;;1.80;1.10;;;;;;;;;;5085437;28;20384;-80
2023/07/30 11:30:20;;;;;;;2.85;1.20;;;;;;;;;;5120876;28;20733;-80
2023/07/30 11:32:46;;;;;;;1.48;1.20;;;;;;;;;;5104014;28;20938;-80
2023/07/30 11:35:15;;;;;;;1.35;1.05;;;;;;;;;;5100458;28;20389;-80
2023/07/30 11:37:42;;;;;;;1.25;1.15;;;;;;;;;;5081512;28;20391;-80
2023/07/30 11:40:09;;;;;;;1.30;1.20;;;;;;;;;;5081343;28;20409;-79
2023/07/30 11:42:42;;;;;;;1.30;1.20;;;;;;;;;;5115539;28;20404;-80
2023/07/30 11:45:23;;;;;;;1.40;1.30;;;;;;;;;;5119838;28;20908;-80
2023/07/30 11:47:50;;;;;;;1.50;1.17;;;;;;;;;;5120425;28;20377;-81
2023/07/30 11:50:16;;;;;;;1.30;1.20;;;;;;;;;;5120755;28;20368;-81
2023/07/30 11:52:53;;;;;;;1.48;1.30;;;;;;;;;;5121299;28;20388;-81
2023/07/30 11:55:19;;;;;;;1.47;1.20;;;;;;;;;;5102754;28;20385;-80
2023/07/30 11:57:45;;;;;;;1.10;1.00;;;;;;;;;;5102259;28;20388;-79
2023/07/30 12:00:11;;;;;;;1.27;1.17;;;;;;;;;;5119490;28;20376;-79
2023/07/30 12:02:38;;;;;;;1.90;1.10;;;;;;;;;;5119556;28;20385;-80
2023/07/30 12:05:04;;;;;;;1.33;1.15;;;;;;;;;;5120366;28;20391;-80
2023/07/30 12:07:33;;;;;;;1.10;1.00;;;;;;;;;;5119594;28;20717;-80
2023/07/30 12:10:13;;;;;;;1.70;1.27;;;;;;;;;;5119107;28;20371;-80
2023/07/30 12:12:45;;;;;;;1.20;1.10;;;;;;;;;;5119220;28;20396;-80
2023/07/30 12:15:12;;;;;;;1.80;1.10;;;;;;;;;;5101107;28;20706;-80
2023/07/30 12:17:38;;;;;;;1.20;1.10;;;;;;;;;;5119355;28;20380;-80
2023/07/30 12:20:06;;;;;;;1.80;1.20;;;;;;;;;;5119670;28;20887;-80
2023/07/30 12:22:34;;;;;;;1.70;1.30;;;;;;;;;;5120335;28;20829;-80
2023/07/30 12:25:00;;;;;;;1.60;1.00;;;;;;;;;;5119944;28;20384;-80
2023/07/30 12:27:26;;;;;;;1.10;1.00;;;;;;;;;;5101070;28;20415;-80
2023/07/30 12:29:52;;;;;;;2.25;1.00;;;;;;;;;;5120183;28;20376;-79
2023/07/30 12:32:18;;;;;;;1.45;1.15;;;;;;;;;;5119654;28;20404;-78
2023/07/30 12:34:44;;;;;;;1.40;1.30;;;;;;;;;;5120771;28;20451;-81
2023/07/30 12:37:10;;;;;;;1.52;1.35;;;;;;;;;;5121278;28;20372;-78
2023/07/30 12:39:36;;;;;;;2.42;1.42;;;;;;;;;;5080969;22;20433;-83
2023/07/30 12:42:02;;;;;;;1.90;1.30;;;;;;;;;;5078380;28;20414;-83
2023/07/30 12:44:28;;;;;;;2.22;1.30;;;;;;;;;;5084192;28;20418;-84
2023/07/30 12:46:54;;;;;;;1.60;1.42;;;;;;;;;;5085301;28;20402;-83
2023/07/30 12:49:20;;;;;;;3.08;1.20;;;;;;;;;;5084423;28;20376;-84
2023/07/30 12:51:46;;;;;;;1.30;1.20;;;;;;;;;;5084481;28;20407;-85
2023/07/30 12:54:12;;;;;;;2.35;1.40;;;;;;;;;;5084540;28;20838;-83
2023/07/30 12:56:38;;;;;;;2.17;1.10;;;;;;;;;;5083033;28;20390;-83
2023/07/30 12:59:04;;;;;;;1.30;1.20;;;;;;;;;;5085326;28;20403;-85
2023/07/30 13:01:30;;;;;;;1.88;1.10;;;;;;;;;;5083362;28;20386;-85
2023/07/30 13:03:56;;;;;;;1.55;1.30;;;;;;;;;;5084393;28;20399;-84
2023/07/30 13:06:22;;;;;;;2.40;1.30;;;;;;;;;;5068694;28;20385;-83
2023/07/30 13:08:48;;;;;;;1.23;1.10;;;;;;;;;;5079321;28;20468;-85
2023/07/30 13:11:14;;;;;;;1.27;1.10;;;;;;;;;;5085005;28;20400;-85
2023/07/30 13:13:40;;;;;;;1.30;1.20;;;;;;;;;;5086067;28;20384;-85
2023/07/30 13:16:06;;;;;;;1.40;1.10;;;;;;;;;;5085608;28;20467;-84
2023/07/30 13:18:33;;;;;;;2.15;1.20;;;;;;;;;;5085050;28;20376;-84
2023/07/30 13:20:59;;;;;;;1.25;1.15;;;;;;;;;;5083631;28;20399;-85
2023/07/30 13:23:25;;;;;;;1.30;1.17;;;;;;;;;;5084807;28;20384;-85
2023/07/30 13:25:51;;;;;;;1.35;1.25;;;;;;;;;;5084003;28;20954;-85
2023/07/30 13:28:17;;;;;;;1.05;1.05;;;;;;;;;;5085380;28;20384;-85
2023/07/30 13:30:44;;;;;;;1.35;1.25;;;;;;;;;;5084742;28;20423;-85
2023/07/30 13:33:11;;;;;;;1.40;1.30;;;;;;;;;;5083390;28;20407;-85
2023/07/30 13:35:37;;;;;;;1.40;1.30;;;;;;;;;;5064511;28;20393;-85
2023/07/30 13:38:03;;;;;;;2.72;1.00;;;;;;;;;;5064732;28;20385;-83
2023/07/30 13:40:29;;;;;;;1.92;1.00;;;;;;;;;;5064390;28;20403;-83
2023/07/30 13:42:55;;;;;;;1.80;1.20;;;;;;;;;;5080876;28;20380;-85
2023/07/30 13:45:20;;;;;;;1.20;1.10;;;;;;;;;;5082740;28;20400;-83
2023/07/30 13:47:46;;;;;;;1.60;1.15;;;;;;;;;;5083739;28;20387;-83
2023/07/30 13:50:12;;;;;;;1.60;1.23;;;;;;;;;;5084096;28;20387;-83
2023/07/30 13:52:38;;;;;;;1.40;1.30;;;;;;;;;;5084444;28;20406;-83
2023/07/30 13:55:05;;;;;;;1.30;1.20;;;;;;;;;;5083680;28;20388;-83
2023/07/30 13:57:31;;;;;;;1.75;1.20;;;;;;;;;;5084136;28;20390;-83
2023/07/30 13:59:57;;;;;;;1.40;1.30;;;;;;;;;;5083900;28;20462;-83
2023/07/30 14:02:23;;;;;;;1.25;1.00;;;;;;;;;;5081553;28;20380;-83
2023/07/30 14:04:49;;;;;;;1.40;1.20;;;;;;;;;;5082806;28;20387;-83
2023/07/30 14:07:15;;;;;;;1.20;1.10;;;;;;;;;;5083398;28;20445;-83
2023/07/30 14:09:42;;;;;;;1.27;1.17;;;;;;;;;;5082680;28;20388;-83
2023/07/30 14:12:08;;;;;;;1.20;1.10;;;;;;;;;;5083222;28;20453;-83
2023/07/30 14:14:34;;;;;;;1.27;1.08;;;;;;;;;;5082542;28;20380;-83
2023/07/30 14:17:06;;;;;;;1.98;1.00;;;;;;;;;;5082271;28;20884;-83
2023/07/30 14:19:32;;;;;;;1.20;1.10;;;;;;;;;;5081151;28;20884;-83
2023/07/30 14:21:58;;;;;;;1.20;1.10;;;;;;;;;;5082522;28;20391;-84
2023/07/30 14:24:24;;;;;;;1.52;1.10;;;;;;;;;;5082803;28;20383;-84
2023/07/30 14:26:50;;;;;;;1.35;1.20;;;;;;;;;;5082782;28;20395;-84
2023/07/30 14:29:16;;;;;;;1.40;1.20;;;;;;;;;;5083470;28;20375;-85
2023/07/30 14:31:43;;;;;;;1.30;1.10;;;;;;;;;;5081936;28;20455;-85
2023/07/30 14:34:10;;;;;;;1.07;0.97;;;;;;;;;;5083516;28;20384;-84
2023/07/30 14:36:36;;;;;;;1.10;1.00;;;;;;;;;;5082263;28;20390;-84
2023/07/30 14:39:02;;;;;;;2.40;0.90;;;;;;;;;;5082563;28;20383;-83
2023/07/30 14:41:28;;;;;;;1.98;1.17;;;;;;;;;;5082581;28;20387;-84